Time;durP1;ratioP1;P1;durP2;ratioP2;P2;SDS_P1;SDS_P2;PMS_P1;PMS_P2;Temp;Humidity;BMP_temperature;BMP_pressure;BME280_temperature;BME280_humidity;BME280_pressure;Samples;Min_cycle;Max_cycle;Signal;HPM_P1;HPM_P2
2023/06/25 00:00:44;;;;;;;6.75;4.80;;;;;;;;;;2058348;28;20030;-93
2023/06/25 00:01:44;;;;;;;5.15;4.32;;;;;;;;;;2058253;28;20403;-94
2023/06/25 00:02:45;;;;;;;7.03;4.78;;;;;;;;;;1714383;28;10000383;-93
2023/06/25 00:03:45;;;;;;;6.40;4.90;;;;;;;;;;2057675;28;20029;-95
2023/06/25 00:04:46;;;;;;;6.90;5.18;;;;;;;;;;2058098;28;20133;-94
2023/06/25 00:05:46;;;;;;;6.07;4.80;;;;;;;;;;2050398;29;20105;-95
2023/06/25 00:06:47;;;;;;;7.10;4.95;;;;;;;;;;2058360;28;20041;-95
2023/06/25 00:07:49;;;;;;;6.57;4.88;;;;;;;;;;2058196;28;20438;-94
2023/06/25 00:08:49;;;;;;;6.88;5.05;;;;;;;;;;2057955;28;20037;-95
2023/06/25 00:09:56;;;;;;;7.85;5.47;;;;;;;;;;2058241;28;20086;-95
2023/06/25 00:10:57;;;;;;;6.35;4.95;;;;;;;;;;2058552;28;20376;-94
2023/06/25 00:11:57;;;;;;;5.90;4.75;;;;;;;;;;2057818;28;20033;-94
2023/06/25 00:12:58;;;;;;;6.30;4.90;;;;;;;;;;2058036;28;20037;-94
2023/06/25 00:13:58;;;;;;;7.07;5.40;;;;;;;;;;2058507;28;20022;-94
2023/06/25 00:15:00;;;;;;;7.60;5.15;;;;;;;;;;2058028;28;20033;-94
2023/06/25 00:16:00;;;;;;;8.27;4.80;;;;;;;;;;2057930;28;20026;-93
2023/06/25 00:17:03;;;;;;;6.40;5.13;;;;;;;;;;2058608;28;20029;-96
2023/06/25 00:18:04;;;;;;;7.10;4.85;;;;;;;;;;2058715;28;20404;-96
2023/06/25 00:19:05;;;;;;;6.38;5.20;;;;;;;;;;2058140;28;20498;-95
2023/06/25 00:20:07;;;;;;;7.07;5.22;;;;;;;;;;2057909;28;20022;-95
2023/06/25 00:21:08;;;;;;;7.18;5.10;;;;;;;;;;2057794;28;20121;-94
2023/06/25 00:22:11;;;;;;;6.38;4.93;;;;;;;;;;2049772;29;20026;-95
2023/06/25 00:23:12;;;;;;;6.10;4.65;;;;;;;;;;2049837;28;20171;-95
2023/06/25 00:24:12;;;;;;;11.05;5.43;;;;;;;;;;2049844;28;20031;-94
2023/06/25 00:25:15;;;;;;;7.20;5.45;;;;;;;;;;2057869;28;20049;-93
2023/06/25 00:26:15;;;;;;;6.80;5.22;;;;;;;;;;2057705;28;20530;-94
2023/06/25 00:27:16;;;;;;;6.50;5.20;;;;;;;;;;2049946;29;20035;-94
2023/06/25 00:28:16;;;;;;;6.40;5.47;;;;;;;;;;2049660;29;20027;-94
2023/06/25 00:29:17;;;;;;;8.10;5.50;;;;;;;;;;2049697;29;20031;-94
2023/06/25 00:30:18;;;;;;;6.63;4.85;;;;;;;;;;2049506;29;20045;-95
2023/06/25 00:31:20;;;;;;;7.00;5.10;;;;;;;;;;2049942;28;20034;-94
2023/06/25 00:32:21;;;;;;;7.75;5.20;;;;;;;;;;2057837;28;20070;-93
2023/06/25 00:33:21;;;;;;;7.53;5.43;;;;;;;;;;2054752;28;20035;-93
2023/06/25 00:34:22;;;;;;;7.60;5.30;;;;;;;;;;2057590;28;20039;-92
2023/06/25 00:35:26;;;;;;;6.50;5.63;;;;;;;;;;2057604;28;20031;-93
2023/06/25 00:36:36;;;;;;;6.97;5.18;;;;;;;;;;2057925;28;20382;-94
2023/06/25 00:37:38;;;;;;;7.45;5.63;;;;;;;;;;2057813;28;20035;-95
2023/06/25 00:38:39;;;;;;;6.55;5.47;;;;;;;;;;2057908;28;20027;-94
2023/06/25 00:39:40;;;;;;;7.88;5.43;;;;;;;;;;2057766;28;20039;-94
2023/06/25 00:40:40;;;;;;;7.50;5.22;;;;;;;;;;2058032;28;20406;-92
2023/06/25 00:41:42;;;;;;;8.65;5.85;;;;;;;;;;2062249;28;20018;-94
2023/06/25 00:42:44;;;;;;;7.43;5.97;;;;;;;;;;2056806;28;20106;-93
2023/06/25 00:43:44;;;;;;;12.25;6.45;;;;;;;;;;2050363;28;20050;-93
2023/06/25 00:44:45;;;;;;;10.27;5.80;;;;;;;;;;2057601;28;20409;-93
2023/06/25 00:45:45;;;;;;;10.73;6.05;;;;;;;;;;2050545;29;20100;-96
2023/06/25 00:46:46;;;;;;;8.48;6.10;;;;;;;;;;2058494;28;20031;-94
2023/06/25 00:47:46;;;;;;;7.78;6.05;;;;;;;;;;2059147;28;20040;-93
2023/06/25 00:48:47;;;;;;;7.93;5.55;;;;;;;;;;2059015;28;20059;-93
2023/06/25 00:49:48;;;;;;;7.40;5.60;;;;;;;;;;2058211;28;20045;-93
2023/06/25 00:50:49;;;;;;;6.35;5.40;;;;;;;;;;2058261;28;20033;-93
2023/06/25 00:51:50;;;;;;;8.95;5.97;;;;;;;;;;2057574;28;20034;-94
2023/06/25 00:52:52;;;;;;;8.18;5.15;;;;;;;;;;2058665;28;20042;-93
2023/06/25 00:53:53;;;;;;;7.30;5.40;;;;;;;;;;2057660;28;20058;-93
2023/06/25 00:54:53;;;;;;;8.82;5.50;;;;;;;;;;2057854;28;20027;-92
2023/06/25 00:55:54;;;;;;;8.38;5.70;;;;;;;;;;2058003;28;20200;-93
2023/06/25 00:56:54;;;;;;;6.35;5.53;;;;;;;;;;2057605;28;20023;-94
2023/06/25 00:57:56;;;;;;;7.15;5.20;;;;;;;;;;2049659;29;20027;-94
2023/06/25 00:59:00;;;;;;;7.55;5.47;;;;;;;;;;2059000;28;20026;-93
2023/06/25 01:00:01;;;;;;;8.00;5.60;;;;;;;;;;2058253;28;20410;-93
2023/06/25 01:01:02;;;;;;;7.60;5.50;;;;;;;;;;2058045;28;20030;-94
2023/06/25 01:02:20;;;;;;;7.03;5.40;;;;;;;;;;2049459;28;20023;-94
2023/06/25 01:03:30;;;;;;;6.63;4.95;;;;;;;;;;2058353;28;20040;-94
2023/06/25 01:04:36;;;;;;;7.72;5.88;;;;;;;;;;2055119;28;20034;-93
2023/06/25 01:05:58;;;;;;;7.47;5.40;;;;;;;;;;2058364;28;20039;-94
2023/06/25 01:07:00;;;;;;;;;;;;;;;;;;2058045;28;20178;-95
2023/06/25 01:08:03;;;;;;;6.40;5.10;;;;;;;;;;2057301;28;19914;-94
2023/06/25 01:09:04;;;;;;;8.65;5.20;;;;;;;;;;2057138;28;20030;-93
2023/06/25 01:10:12;;;;;;;7.15;5.72;;;;;;;;;;2049577;28;20066;-93
2023/06/25 01:11:12;;;;;;;5.43;4.82;;;;;;;;;;2049757;28;20039;-93
2023/06/25 01:12:13;;;;;;;8.45;5.60;;;;;;;;;;2057134;28;20427;-93
2023/06/25 01:13:13;;;;;;;8.70;5.60;;;;;;;;;;2057333;28;20046;-94
2023/06/25 01:14:14;;;;;;;7.75;5.70;;;;;;;;;;2056784;28;20034;-94
2023/06/25 01:15:14;;;;;;;7.13;5.47;;;;;;;;;;2049746;29;20085;-93
2023/06/25 01:16:15;;;;;;;6.75;5.82;;;;;;;;;;2050682;29;20437;-93
2023/06/25 01:17:16;;;;;;;7.35;5.20;;;;;;;;;;2059038;28;20027;-91
2023/06/25 01:18:17;;;;;;;6.55;5.32;;;;;;;;;;2061734;28;20026;-91
2023/06/25 01:19:18;;;;;;;8.57;5.70;;;;;;;;;;2054140;28;20035;-92
2023/06/25 01:20:19;;;;;;;5.90;5.13;;;;;;;;;;2059028;28;20034;-94
2023/06/25 01:21:23;;;;;;;8.10;5.65;;;;;;;;;;2057126;28;20378;-95
2023/06/25 01:22:31;;;;;;;6.15;5.30;;;;;;;;;;2057655;28;20030;-94
2023/06/25 01:23:32;;;;;;;8.55;5.05;;;;;;;;;;2057394;28;20030;-94
2023/06/25 01:24:34;;;;;;;8.10;5.53;;;;;;;;;;2049654;29;20027;-94
2023/06/25 01:25:38;;;;;;;7.78;6.03;;;;;;;;;;1707454;28;10195921;-94
2023/06/25 01:26:38;;;;;;;5.68;5.03;;;;;;;;;;2049727;28;20035;-95
2023/06/25 01:27:38;;;;;;;6.78;5.43;;;;;;;;;;2049737;29;20411;-95
2023/06/25 01:28:40;;;;;;;6.75;5.80;;;;;;;;;;2065278;28;20003;-96
2023/06/25 01:29:41;;;;;;;8.13;5.90;;;;;;;;;;2067138;28;20022;-95
2023/06/25 01:30:42;;;;;;;8.65;5.75;;;;;;;;;;2049206;29;20651;-96
2023/06/25 01:31:42;;;;;;;7.88;5.90;;;;;;;;;;2049604;29;20067;-94
2023/06/25 01:32:44;;;;;;;8.23;5.53;;;;;;;;;;2049654;28;20047;-94
2023/06/25 01:33:44;;;;;;;7.72;5.57;;;;;;;;;;2049595;28;20027;-95
2023/06/25 01:34:45;;;;;;;6.45;5.40;;;;;;;;;;2049954;29;20122;-94
2023/06/25 01:35:46;;;;;;;7.30;5.40;;;;;;;;;;2049476;29;20030;-94
2023/06/25 01:36:49;;;;;;;9.73;5.50;;;;;;;;;;2049529;28;20023;-94
2023/06/25 01:37:51;;;;;;;7.45;6.68;;;;;;;;;;2049557;28;20015;-95
2023/06/25 01:38:51;;;;;;;9.93;5.78;;;;;;;;;;2049124;28;20027;-93
2023/06/25 01:39:53;;;;;;;6.80;5.57;;;;;;;;;;2057230;28;20025;-92
2023/06/25 01:40:54;;;;;;;7.72;6.03;;;;;;;;;;2057399;28;20027;-94
2023/06/25 01:41:54;;;;;;;7.63;5.43;;;;;;;;;;2057266;28;20034;-94
2023/06/25 01:42:54;;;;;;;8.50;5.70;;;;;;;;;;2057867;28;20030;-95
2023/06/25 01:43:55;;;;;;;9.05;5.78;;;;;;;;;;2057168;28;20502;-94
2023/06/25 01:44:55;;;;;;;8.60;5.63;;;;;;;;;;2049190;29;20407;-95
2023/06/25 01:45:56;;;;;;;8.95;6.20;;;;;;;;;;2058014;28;20089;-93
2023/06/25 01:46:57;;;;;;;7.10;6.15;;;;;;;;;;2057731;28;20049;-93
2023/06/25 01:47:58;;;;;;;6.90;5.35;;;;;;;;;;1704506;28;10282248;-93
2023/06/25 01:48:58;;;;;;;9.75;5.95;;;;;;;;;;2048947;28;20054;-93
2023/06/25 01:49:59;;;;;;;6.88;5.53;;;;;;;;;;2049038;29;20086;-93
2023/06/25 01:50:59;;;;;;;6.65;5.43;;;;;;;;;;2057275;28;20026;-93
2023/06/25 01:52:02;;;;;;;6.65;5.68;;;;;;;;;;1733625;28;10271256;-95
2023/06/25 01:53:03;;;;;;;8.10;5.67;;;;;;;;;;1702371;28;10335256;-94
2023/06/25 01:54:03;;;;;;;7.15;5.97;;;;;;;;;;2049096;29;20031;-95
2023/06/25 01:55:04;;;;;;;7.00;5.85;;;;;;;;;;2049570;29;20463;-96
2023/06/25 01:56:05;;;;;;;6.95;5.95;;;;;;;;;;2048664;29;20118;-96
2023/06/25 01:57:05;;;;;;;7.18;5.90;;;;;;;;;;2049494;29;20047;-96
2023/06/25 01:58:06;;;;;;;6.13;5.45;;;;;;;;;;2049392;29;20031;-96
2023/06/25 01:59:06;;;;;;;8.07;5.50;;;;;;;;;;2049437;29;20026;-96
2023/06/25 02:00:10;;;;;;;7.70;5.93;;;;;;;;;;2049581;29;20038;-95
2023/06/25 02:01:10;;;;;;;8.27;5.97;;;;;;;;;;2049341;29;20066;-95
2023/06/25 02:02:10;;;;;;;8.68;6.10;;;;;;;;;;2041701;29;20087;-95
2023/06/25 02:03:11;;;;;;;10.40;6.28;;;;;;;;;;2048944;28;20034;-95
2023/06/25 02:04:11;;;;;;;7.75;6.15;;;;;;;;;;2057003;28;20050;-93
2023/06/25 02:05:13;;;;;;;10.63;6.57;;;;;;;;;;2050974;29;20142;-94
2023/06/25 02:06:14;;;;;;;7.97;6.15;;;;;;;;;;2050678;28;20062;-94
2023/06/25 02:07:14;;;;;;;7.45;5.72;;;;;;;;;;2050725;28;20027;-93
2023/06/25 02:08:15;;;;;;;9.40;6.35;;;;;;;;;;2049968;29;20049;-96
2023/06/25 02:09:15;;;;;;;9.25;5.95;;;;;;;;;;2048697;29;20117;-94
2023/06/25 02:10:16;;;;;;;9.00;6.22;;;;;;;;;;2049591;29;20027;-95
2023/06/25 02:11:17;;;;;;;9.82;6.25;;;;;;;;;;2055464;29;20034;-94
2023/06/25 02:12:20;;;;;;;8.07;6.35;;;;;;;;;;2058533;29;20170;-95
2023/06/25 02:13:20;;;;;;;11.20;6.10;;;;;;;;;;2059407;28;20656;-95
2023/06/25 02:14:22;;;;;;;7.47;6.30;;;;;;;;;;2057910;28;20031;-93
2023/06/25 02:15:23;;;;;;;7.15;6.00;;;;;;;;;;2064530;28;20102;-94
2023/06/25 02:16:24;;;;;;;9.77;6.32;;;;;;;;;;2065963;28;20030;-94
2023/06/25 02:17:24;;;;;;;9.32;6.38;;;;;;;;;;2056575;29;20105;-93
2023/06/25 02:18:25;;;;;;;8.02;5.55;;;;;;;;;;2060612;28;20061;-93
2023/06/25 02:19:25;;;;;;;11.00;6.90;;;;;;;;;;2057458;28;20110;-93
2023/06/25 02:20:26;;;;;;;8.40;6.00;;;;;;;;;;2057607;28;20487;-95
2023/06/25 02:21:29;;;;;;;7.72;5.95;;;;;;;;;;2057125;28;20077;-95
2023/06/25 02:22:30;;;;;;;8.32;6.75;;;;;;;;;;2057176;28;20037;-95
2023/06/25 02:23:30;;;;;;;9.43;6.43;;;;;;;;;;2049379;29;20486;-95
2023/06/25 02:24:31;;;;;;;8.68;6.25;;;;;;;;;;2040801;29;20088;-93
2023/06/25 02:25:31;;;;;;;8.07;6.30;;;;;;;;;;2050718;29;20027;-93
2023/06/25 02:26:33;;;;;;;10.60;6.93;;;;;;;;;;2058788;29;20054;-93
2023/06/25 02:27:34;;;;;;;9.38;6.70;;;;;;;;;;2059163;28;20081;-93
2023/06/25 02:28:40;;;;;;;7.75;6.68;;;;;;;;;;2067207;28;20038;-91
2023/06/25 02:29:41;;;;;;;10.50;6.70;;;;;;;;;;2066897;28;20026;-94
2023/06/25 02:30:43;;;;;;;7.60;6.30;;;;;;;;;;2059474;28;20029;-93
2023/06/25 02:31:43;;;;;;;7.85;6.30;;;;;;;;;;2067072;28;20011;-94
2023/06/25 02:32:44;;;;;;;9.98;6.35;;;;;;;;;;2066873;28;20022;-95
2023/06/25 02:33:44;;;;;;;7.90;6.20;;;;;;;;;;2067088;28;20080;-94
2023/06/25 02:34:45;;;;;;;8.30;5.75;;;;;;;;;;2066715;28;20058;-94
2023/06/25 02:35:45;;;;;;;7.03;5.97;;;;;;;;;;2064267;28;20034;-95
2023/06/25 02:36:47;;;;;;;8.45;6.75;;;;;;;;;;2055361;29;20031;-93
2023/06/25 02:37:48;;;;;;;9.48;6.13;;;;;;;;;;2064261;28;20022;-93
2023/06/25 02:38:48;;;;;;;10.25;6.85;;;;;;;;;;2058552;28;20105;-93
2023/06/25 02:39:49;;;;;;;8.20;6.53;;;;;;;;;;2056623;28;20026;-93
2023/06/25 02:40:49;;;;;;;9.52;6.63;;;;;;;;;;1707382;28;10173664;-92
2023/06/25 02:41:49;;;;;;;9.93;5.95;;;;;;;;;;2049062;29;20577;-92
2023/06/25 02:42:50;;;;;;;8.07;6.22;;;;;;;;;;2048965;29;20462;-93
2023/06/25 02:43:50;;;;;;;8.88;6.55;;;;;;;;;;2049270;29;20411;-92
2023/06/25 02:44:50;;;;;;;8.18;7.00;;;;;;;;;;2048687;29;20042;-92
2023/06/25 02:45:51;;;;;;;7.63;6.32;;;;;;;;;;2057220;28;20446;-92
2023/06/25 02:46:51;;;;;;;8.85;6.45;;;;;;;;;;2056908;28;20432;-93
2023/06/25 02:47:52;;;;;;;10.32;6.35;;;;;;;;;;2049154;29;20172;-93
2023/06/25 02:48:52;;;;;;;9.25;6.53;;;;;;;;;;2056652;28;20023;-93
2023/06/25 02:49:53;;;;;;;11.23;6.97;;;;;;;;;;2056887;28;20415;-93
2023/06/25 02:50:56;;;;;;;13.15;6.57;;;;;;;;;;2046853;28;20078;-92
2023/06/25 02:51:57;;;;;;;9.80;6.55;;;;;;;;;;2063436;28;20054;-93
2023/06/25 02:52:58;;;;;;;7.68;5.78;;;;;;;;;;2066195;28;20038;-93
2023/06/25 02:53:58;;;;;;;9.55;5.90;;;;;;;;;;2065218;28;20126;-93
2023/06/25 02:54:59;;;;;;;10.20;6.53;;;;;;;;;;2064414;28;20041;-94
2023/06/25 02:55:59;;;;;;;10.57;7.32;;;;;;;;;;2063647;28;20136;-93
2023/06/25 02:57:00;;;;;;;12.63;6.80;;;;;;;;;;2065207;28;20028;-93
2023/06/25 02:58:02;;;;;;;8.68;6.80;;;;;;;;;;2065183;28;20042;-93
2023/06/25 02:59:02;;;;;;;8.27;6.53;;;;;;;;;;2064852;28;20089;-94
2023/06/25 03:00:04;;;;;;;7.95;5.72;;;;;;;;;;2063668;28;20058;-92
2023/06/25 03:01:05;;;;;;;9.00;5.75;;;;;;;;;;2059258;28;20094;-92
2023/06/25 03:02:05;;;;;;;7.25;6.40;;;;;;;;;;2059807;28;20458;-91
2023/06/25 03:03:06;;;;;;;8.80;6.47;;;;;;;;;;2061863;28;20050;-91
2023/06/25 03:04:07;;;;;;;10.27;6.50;;;;;;;;;;2063601;28;20023;-93
2023/06/25 03:05:08;;;;;;;9.20;6.40;;;;;;;;;;2061100;28;20062;-93
2023/06/25 03:06:08;;;;;;;9.10;6.90;;;;;;;;;;2048637;28;20121;-93
2023/06/25 03:07:09;;;;;;;8.02;5.80;;;;;;;;;;2056728;28;20042;-93
2023/06/25 03:08:10;;;;;;;9.90;6.93;;;;;;;;;;2057824;28;20509;-93
2023/06/25 03:09:11;;;;;;;7.15;5.47;;;;;;;;;;2049927;28;20019;-93
2023/06/25 03:10:18;;;;;;;9.65;6.60;;;;;;;;;;1890494;28;10286477;-93
2023/06/25 03:11:18;;;;;;;7.72;6.60;;;;;;;;;;2062283;28;20252;-92
2023/06/25 03:12:20;;;;;;;8.73;6.93;;;;;;;;;;2060062;28;20033;-93
2023/06/25 03:13:20;;;;;;;11.40;6.95;;;;;;;;;;2063211;28;20041;-92
2023/06/25 03:14:21;;;;;;;8.60;6.18;;;;;;;;;;2063655;28;20074;-93
2023/06/25 03:15:21;;;;;;;10.95;6.32;;;;;;;;;;1709570;28;10326647;-92
2023/06/25 03:16:22;;;;;;;8.35;6.25;;;;;;;;;;1713090;28;10159341;-91
2023/06/25 03:17:23;;;;;;;11.65;6.68;;;;;;;;;;2064466;28;20030;-93
2023/06/25 03:18:23;;;;;;;8.98;6.30;;;;;;;;;;2049891;29;20087;-93
2023/06/25 03:19:24;;;;;;;7.38;5.85;;;;;;;;;;2050264;29;20523;-93
2023/06/25 03:20:24;;;;;;;7.57;5.97;;;;;;;;;;2058636;28;20046;-92
2023/06/25 03:21:24;;;;;;;9.40;7.00;;;;;;;;;;2050028;29;20163;-93
2023/06/25 03:22:25;;;;;;;8.75;6.22;;;;;;;;;;2058544;28;20054;-93
2023/06/25 03:23:26;;;;;;;8.45;6.30;;;;;;;;;;2059429;28;20539;-92
2023/06/25 03:24:27;;;;;;;7.50;5.88;;;;;;;;;;2058854;28;20501;-94
2023/06/25 03:25:27;;;;;;;7.70;6.47;;;;;;;;;;2057950;28;20023;-94
2023/06/25 03:26:28;;;;;;;10.25;7.10;;;;;;;;;;2058802;28;20081;-95
2023/06/25 03:27:29;;;;;;;8.77;6.10;;;;;;;;;;2058906;28;20038;-93
2023/06/25 03:28:32;;;;;;;6.70;5.97;;;;;;;;;;2058725;28;20046;-94
2023/06/25 03:29:32;;;;;;;10.38;6.45;;;;;;;;;;2058771;28;20379;-94
2023/06/25 03:30:33;;;;;;;10.07;6.18;;;;;;;;;;2058264;28;20133;-92
2023/06/25 03:31:33;;;;;;;7.20;5.97;;;;;;;;;;2050267;29;20034;-92
2023/06/25 03:32:34;;;;;;;9.63;6.20;;;;;;;;;;2058180;28;20022;-94
2023/06/25 03:33:34;;;;;;;7.43;6.10;;;;;;;;;;2058033;28;20107;-93
2023/06/25 03:34:34;;;;;;;10.20;6.00;;;;;;;;;;2058141;28;20059;-93
2023/06/25 03:35:35;;;;;;;13.27;6.70;;;;;;;;;;2049737;29;20063;-92
2023/06/25 03:36:35;;;;;;;9.60;6.13;;;;;;;;;;2050166;29;20042;-93
2023/06/25 03:37:36;;;;;;;9.88;6.32;;;;;;;;;;2058112;28;20098;-91
2023/06/25 03:38:36;;;;;;;8.05;6.53;;;;;;;;;;2058346;28;20486;-92
2023/06/25 03:39:36;;;;;;;9.40;6.25;;;;;;;;;;2058089;28;20525;-93
2023/06/25 03:40:38;;;;;;;11.00;6.47;;;;;;;;;;2057739;28;20046;-93
2023/06/25 03:41:39;;;;;;;17.48;8.63;;;;;;;;;;2058135;28;20030;-93
2023/06/25 03:42:39;;;;;;;8.80;6.35;;;;;;;;;;2049949;29;20023;-93
2023/06/25 03:43:39;;;;;;;12.85;7.07;;;;;;;;;;2050092;29;20090;-92
2023/06/25 03:44:47;;;;;;;8.68;6.53;;;;;;;;;;2049928;29;20031;-93
2023/06/25 03:45:49;;;;;;;9.15;6.68;;;;;;;;;;2050954;28;20052;-94
2023/06/25 03:46:49;;;;;;;11.57;6.85;;;;;;;;;;2057819;28;20034;-92
2023/06/25 03:47:50;;;;;;;11.18;6.65;;;;;;;;;;2058395;28;20018;-92
2023/06/25 03:48:50;;;;;;;8.75;6.72;;;;;;;;;;2057993;28;20479;-93
2023/06/25 03:49:51;;;;;;;7.40;5.75;;;;;;;;;;2057962;28;20090;-92
2023/06/25 03:50:51;;;;;;;9.60;6.28;;;;;;;;;;2062112;28;20033;-92
2023/06/25 03:51:52;;;;;;;8.90;6.68;;;;;;;;;;2059280;28;20009;-92
2023/06/25 03:52:54;;;;;;;9.80;6.72;;;;;;;;;;2060576;28;20030;-93
2023/06/25 03:53:55;;;;;;;10.02;6.40;;;;;;;;;;2058057;28;20019;-93
2023/06/25 03:54:56;;;;;;;10.98;6.78;;;;;;;;;;2050094;28;20031;-94
2023/06/25 03:55:56;;;;;;;9.48;6.55;;;;;;;;;;2050321;29;20587;-93
2023/06/25 03:56:57;;;;;;;10.88;7.07;;;;;;;;;;2058142;28;20463;-94
2023/06/25 03:57:57;;;;;;;10.20;7.00;;;;;;;;;;2057765;28;20027;-93
2023/06/25 03:58:57;;;;;;;8.73;6.53;;;;;;;;;;2057637;28;20031;-94
2023/06/25 03:59:58;;;;;;;10.18;6.80;;;;;;;;;;2058487;28;20589;-94
2023/06/25 04:00:58;;;;;;;10.20;6.47;;;;;;;;;;2049673;29;20514;-94
2023/06/25 04:01:59;;;;;;;9.23;6.72;;;;;;;;;;2049804;29;20075;-93
2023/06/25 04:02:59;;;;;;;7.78;6.20;;;;;;;;;;2057927;28;20101;-93
2023/06/25 04:04:00;;;;;;;8.57;6.70;;;;;;;;;;2058513;28;20170;-95
2023/06/25 04:05:00;;;;;;;9.68;6.47;;;;;;;;;;2057514;28;20114;-94
2023/06/25 04:06:01;;;;;;;11.95;6.80;;;;;;;;;;2049895;29;20015;-94
2023/06/25 04:07:01;;;;;;;10.25;6.93;;;;;;;;;;2057919;28;20116;-93
2023/06/25 04:08:02;;;;;;;9.40;6.32;;;;;;;;;;2050509;29;20119;-94
2023/06/25 04:09:03;;;;;;;13.05;7.65;;;;;;;;;;2057932;28;20529;-94
2023/06/25 04:10:04;;;;;;;11.30;6.90;;;;;;;;;;2057302;28;20022;-93
2023/06/25 04:11:05;;;;;;;11.30;6.55;;;;;;;;;;2057377;28;20018;-93
2023/06/25 04:12:06;;;;;;;12.90;7.07;;;;;;;;;;2049993;29;20115;-94
2023/06/25 04:13:06;;;;;;;8.93;6.97;;;;;;;;;;2058014;28;20495;-94
2023/06/25 04:14:07;;;;;;;13.23;7.97;;;;;;;;;;2057802;28;20077;-94
2023/06/25 04:15:08;;;;;;;12.32;7.75;;;;;;;;;;2057844;28;20022;-93
2023/06/25 04:16:09;;;;;;;9.55;7.38;;;;;;;;;;2057417;28;20022;-93
2023/06/25 04:17:09;;;;;;;9.98;7.22;;;;;;;;;;2058081;28;20530;-93
2023/06/25 04:18:10;;;;;;;9.63;7.13;;;;;;;;;;2057876;28;20452;-93
2023/06/25 04:19:10;;;;;;;9.05;7.05;;;;;;;;;;2050062;29;20019;-95
2023/06/25 04:20:10;;;;;;;9.40;7.05;;;;;;;;;;2050659;29;20023;-94
2023/06/25 04:21:11;;;;;;;9.02;7.50;;;;;;;;;;2057825;28;20023;-94
2023/06/25 04:22:12;;;;;;;9.80;6.93;;;;;;;;;;2057893;28;20033;-94
2023/06/25 04:23:12;;;;;;;11.45;7.47;;;;;;;;;;2057978;28;20054;-94
2023/06/25 04:24:13;;;;;;;12.52;8.05;;;;;;;;;;2058106;28;20022;-93
2023/06/25 04:25:13;;;;;;;8.93;7.55;;;;;;;;;;2057936;28;20019;-94
2023/06/25 04:26:14;;;;;;;9.80;7.43;;;;;;;;;;2057928;28;20042;-94
2023/06/25 04:27:15;;;;;;;12.68;7.22;;;;;;;;;;2057293;28;20102;-94
2023/06/25 04:28:16;;;;;;;10.60;7.35;;;;;;;;;;2057663;28;20090;-93
2023/06/25 04:29:16;;;;;;;10.35;7.50;;;;;;;;;;2049506;29;20020;-93
2023/06/25 04:30:17;;;;;;;9.85;6.68;;;;;;;;;;2057401;28;20043;-94
2023/06/25 04:31:17;;;;;;;7.68;6.47;;;;;;;;;;2057685;28;20034;-94
2023/06/25 04:32:18;;;;;;;9.88;5.72;;;;;;;;;;2049352;29;20406;-94
2023/06/25 04:33:20;;;;;;;8.70;6.05;;;;;;;;;;2057640;28;20090;-94
2023/06/25 04:34:20;;;;;;;6.15;4.97;;;;;;;;;;2058289;28;20106;-94
2023/06/25 04:35:21;;;;;;;6.95;5.30;;;;;;;;;;2057236;28;20023;-93
2023/06/25 04:36:21;;;;;;;11.73;6.88;;;;;;;;;;2057379;28;20054;-93
2023/06/25 04:37:21;;;;;;;7.28;5.80;;;;;;;;;;2057373;28;20033;-93
2023/06/25 04:38:22;;;;;;;7.50;5.75;;;;;;;;;;2062651;28;20490;-94
2023/06/25 04:39:22;;;;;;;7.45;5.30;;;;;;;;;;2058246;28;20015;-90
2023/06/25 04:40:23;;;;;;;8.75;5.30;;;;;;;;;;2059601;28;20023;-94
2023/06/25 04:41:24;;;;;;;7.80;5.32;;;;;;;;;;2059176;28;20113;-94
2023/06/25 04:42:24;;;;;;;9.73;5.07;;;;;;;;;;2057744;28;20503;-94
2023/06/25 04:43:25;;;;;;;;;;;;;;;;;;1702117;29;10216126;-93
2023/06/25 04:44:25;;;;;;;;;;;;;;;;;;2053524;29;19921;-93
2023/06/25 04:45:26;;;;;;;7.10;4.80;;;;;;;;;;2061842;28;19932;-91
2023/06/25 04:46:27;;;;;;;6.40;4.05;;;;;;;;;;2064203;28;20078;-91
2023/06/25 04:47:27;;;;;;;7.60;4.75;;;;;;;;;;2066807;28;20018;-92
2023/06/25 04:48:28;;;;;;;5.40;3.65;;;;;;;;;;2058922;28;20031;-93
2023/06/25 04:49:28;;;;;;;6.22;4.20;;;;;;;;;;2059357;29;20035;-94
2023/06/25 04:50:29;;;;;;;5.93;4.00;;;;;;;;;;2058799;28;20030;-95
2023/06/25 04:51:29;;;;;;;6.15;4.10;;;;;;;;;;2065787;28;20086;-95
2023/06/25 04:52:29;;;;;;;6.97;3.85;;;;;;;;;;2061836;28;20027;-94
2023/06/25 04:53:30;;;;;;;5.00;3.58;;;;;;;;;;1706440;28;10387346;-93
2023/06/25 04:54:32;;;;;;;6.28;4.00;;;;;;;;;;2064867;28;20054;-94
2023/06/25 04:55:32;;;;;;;7.00;4.82;;;;;;;;;;2060751;28;20527;-93
2023/06/25 04:56:34;;;;;;;7.18;4.70;;;;;;;;;;2057638;28;20027;-91
2023/06/25 04:57:34;;;;;;;5.60;5.03;;;;;;;;;;2059223;28;20446;-93
2023/06/25 04:58:35;;;;;;;6.00;4.68;;;;;;;;;;2059624;28;20031;-93
2023/06/25 04:59:36;;;;;;;7.43;4.30;;;;;;;;;;2058604;28;20476;-94
2023/06/25 05:00:36;;;;;;;4.32;3.85;;;;;;;;;;2057322;28;20173;-95
2023/06/25 05:01:37;;;;;;;5.55;4.68;;;;;;;;;;2058235;28;20030;-93
2023/06/25 05:02:37;;;;;;;7.90;4.32;;;;;;;;;;2057397;28;20037;-95
2023/06/25 05:03:38;;;;;;;5.90;4.68;;;;;;;;;;2049879;29;20038;-95
2023/06/25 05:04:38;;;;;;;6.38;4.40;;;;;;;;;;2049506;29;20558;-94
2023/06/25 05:05:39;;;;;;;5.75;4.68;;;;;;;;;;2049465;29;20031;-96
2023/06/25 05:06:39;;;;;;;5.68;4.50;;;;;;;;;;2065049;28;20104;-95
2023/06/25 05:07:40;;;;;;;5.78;4.63;;;;;;;;;;2067340;28;20007;-95
2023/06/25 05:08:40;;;;;;;6.53;4.82;;;;;;;;;;2059021;28;20031;-95
2023/06/25 05:09:40;;;;;;;7.45;4.85;;;;;;;;;;2067386;28;20022;-94
2023/06/25 05:10:42;;;;;;;5.47;4.90;;;;;;;;;;2066274;28;20045;-94
2023/06/25 05:11:42;;;;;;;5.72;4.85;;;;;;;;;;2056307;28;20019;-95
2023/06/25 05:12:43;;;;;;;4.72;4.28;;;;;;;;;;2057381;28;20121;-94
2023/06/25 05:13:43;;;;;;;5.97;4.80;;;;;;;;;;1695669;29;10334084;-94
2023/06/25 05:14:43;;;;;;;7.15;5.20;;;;;;;;;;2057328;28;20046;-95
2023/06/25 05:15:44;;;;;;;6.72;4.95;;;;;;;;;;2056979;28;20019;-96
2023/06/25 05:16:44;;;;;;;6.70;4.80;;;;;;;;;;2049111;29;20062;-95
2023/06/25 05:17:45;;;;;;;8.85;5.18;;;;;;;;;;2057337;28;20019;-96
2023/06/25 05:18:45;;;;;;;6.20;4.60;;;;;;;;;;2049651;29;20035;-95
2023/06/25 05:19:46;;;;;;;5.45;4.95;;;;;;;;;;2049294;29;20027;-94
2023/06/25 05:20:47;;;;;;;5.50;4.78;;;;;;;;;;2049170;29;20057;-94
2023/06/25 05:21:47;;;;;;;7.60;4.75;;;;;;;;;;2049097;28;20038;-95
2023/06/25 05:22:47;;;;;;;6.63;4.43;;;;;;;;;;2049399;29;20047;-94
2023/06/25 05:24:00;;;;;;;5.15;4.28;;;;;;;;;;2057858;28;20054;-95
2023/06/25 05:25:01;;;;;;;6.35;4.43;;;;;;;;;;2062547;28;20050;-96
2023/06/25 05:26:02;;;;;;;6.18;4.40;;;;;;;;;;2066031;28;20030;-94
2023/06/25 05:27:04;;;;;;;5.35;4.30;;;;;;;;;;2067257;28;20027;-94
2023/06/25 05:28:05;;;;;;;5.30;4.55;;;;;;;;;;2067390;28;20098;-93
2023/06/25 05:29:06;;;;;;;5.03;4.22;;;;;;;;;;2067852;28;20100;-93
2023/06/25 05:30:07;;;;;;;5.30;4.20;;;;;;;;;;2066687;28;20054;-93
2023/06/25 05:31:08;;;;;;;6.55;4.18;;;;;;;;;;2066939;28;20014;-93
2023/06/25 05:32:08;;;;;;;5.20;4.22;;;;;;;;;;2067159;28;20026;-94
2023/06/25 05:33:09;;;;;;;6.53;4.15;;;;;;;;;;2063802;28;20015;-94
2023/06/25 05:34:09;;;;;;;8.65;4.13;;;;;;;;;;2061796;28;20022;-95
2023/06/25 05:35:10;;;;;;;7.50;4.15;;;;;;;;;;2050433;29;20031;-93
2023/06/25 05:36:12;;;;;;;5.10;3.58;;;;;;;;;;2049461;29;20085;-94
2023/06/25 05:37:13;;;;;;;5.78;4.18;;;;;;;;;;2052691;28;20515;-93
2023/06/25 05:38:13;;;;;;;5.72;3.92;;;;;;;;;;2048616;28;20082;-93
2023/06/25 05:39:14;;;;;;;5.47;4.13;;;;;;;;;;2048823;29;20023;-93
2023/06/25 05:40:14;;;;;;;4.50;3.75;;;;;;;;;;2048509;29;20027;-94
2023/06/25 05:41:15;;;;;;;6.45;3.40;;;;;;;;;;2048919;29;20135;-96
2023/06/25 05:42:28;;;;;;;4.78;3.78;;;;;;;;;;2062322;28;20031;-95
2023/06/25 05:43:29;;;;;;;4.57;3.53;;;;;;;;;;2052165;28;20089;-94
2023/06/25 05:44:31;;;;;;;4.70;3.47;;;;;;;;;;2057675;28;20042;-93
2023/06/25 05:45:31;;;;;;;4.72;3.03;;;;;;;;;;2060577;28;20018;-93
2023/06/25 05:46:35;;;;;;;6.50;3.65;;;;;;;;;;2060031;28;20035;-94
2023/06/25 05:47:35;;;;;;;5.60;3.60;;;;;;;;;;2057556;28;20553;-95
2023/06/25 05:48:36;;;;;;;4.10;3.63;;;;;;;;;;2057822;28;20026;-96
2023/06/25 05:49:36;;;;;;;4.68;3.55;;;;;;;;;;2056621;28;20023;-95
2023/06/25 05:50:37;;;;;;;4.10;3.38;;;;;;;;;;2056835;28;20097;-95
2023/06/25 05:51:37;;;;;;;4.43;3.47;;;;;;;;;;2057365;28;20033;-95
2023/06/25 05:52:42;;;;;;;5.22;3.40;;;;;;;;;;2060791;28;20022;-93
2023/06/25 05:53:44;;;;;;;3.42;3.10;;;;;;;;;;2057427;28;20114;-94
2023/06/25 05:54:44;;;;;;;3.60;3.05;;;;;;;;;;2057449;28;20027;-94
2023/06/25 05:55:55;;;;;;;3.85;3.45;;;;;;;;;;2057583;28;20509;-93
2023/06/25 05:56:55;;;;;;;3.80;3.28;;;;;;;;;;2060023;28;20025;-93
2023/06/25 05:57:56;;;;;;;5.80;3.05;;;;;;;;;;2057537;28;20045;-94
2023/06/25 05:58:56;;;;;;;4.80;3.28;;;;;;;;;;2057187;28;20030;-95
2023/06/25 05:59:56;;;;;;;5.65;2.95;;;;;;;;;;2057677;28;20033;-94
2023/06/25 06:00:57;;;;;;;5.15;3.60;;;;;;;;;;2057215;28;20042;-94
2023/06/25 06:01:57;;;;;;;6.05;3.25;;;;;;;;;;2056828;28;20166;-94
2023/06/25 06:02:59;;;;;;;5.95;3.83;;;;;;;;;;2048811;29;20071;-93
2023/06/25 06:03:59;;;;;;;4.32;3.20;;;;;;;;;;2056497;28;20019;-96
2023/06/25 06:05:00;;;;;;;4.72;3.85;;;;;;;;;;2057487;28;20089;-94
2023/06/25 06:06:01;;;;;;;5.03;3.30;;;;;;;;;;1702638;28;10307427;-95